LFOELFRD

Guest
Details From LFOE - FAUVILLE
To LFRD - Dinard Pleurtuit-St Malo
Flight Number -
Tags generated
Created
Modified
Stats Distance 133 nm / 247 km
Max Altitude 14,800 ft / 4,511 m
Waypoints 3
Social Downloads 0
Likes 0
Share VATSIM

Download

Looking for another format? Having issues loading an existing format? Contact us
Advertisement - Login to hide

Notes

Basic altitude profile: - Ascent Rate: 400ft/min - Ascent Speed: 75kts - Cruise Altitude: 5000ft - Cruise Speed: 90kts - Descent Rate: 400ft/min - Descent Speed: 75kts Options: - Use NATs: no - Use PACOTS: no - Use low airways: yes - Use high airways: no

Route

LFOE GALBO LFRD

ID Type Via Altitude Latitude Longitude Leg Dist Tot Dist Heading (true) Name
O LFOE APT - 0 ft / 0 m 49.02867˚ 1.21987˚ - 0 nm - FAUVILLE
GALBO FIX - 14,800 ft / 4,511 m 48.83806˚ -0.25000˚ 59 nm 59 nm 259° / 258° -
O LFRD APT - 0 ft / 0 m 48.58798˚ -2.07992˚ 74 nm 133 nm 259° / 258° Dinard Pleurtuit-St Malo

Altitude Profile

Advertisement - Login to hide

LFOE

Details ICAO LFOE
Name FAUVILLE
Region France
Timezone Europe/Paris (UTC+1.0)
Stats Elevation 464 ft / 141 m (AMSL)
Location 49.028669° 1.219866°
Runways 1
Magnetic Variation 0.224° E

METAR

LFOE 112300Z AUTO 29008KT CAVOK 03/01 Q0998

Decode

TAF

TAF TAF LFOE 112000Z 1121/1221 30010G20KT 9999 BKN018 BECMG 1200/1203 26010KT BECMG 1215/1218 20010KT

Decode

Departure Runways

ID Width Length Bearing (true) Bearing (mag) Surface Threshold Offset Overrun Length
04 148 ft / 45 m 9,836 ft / 2,998 m 39.78° 39.56° Asphalt 0 ft / 0 m 0 ft / 0 m
22 148 ft / 45 m 9,836 ft / 2,998 m 219.80° 219.58° Asphalt 0 ft / 0 m 0 ft / 0 m

LFRD

Details ICAO LFRD (DNR)
Name Dinard Pleurtuit-St Malo
Region France
Timezone Europe/Paris (UTC+1.0)
Stats Elevation 216 ft / 66 m (AMSL)
Location 48.587983° -2.079916°
Runways 2
Magnetic Variation 0.799° W

METAR

LFRD 112300Z AUTO 32006KT 9999 BKN041 BKN049 BKN056 04/M01 Q1002 NOSIG

Decode

TAF

TAF TAF LFRD 111700Z 1118/1218 35020G30KT 9999 BKN020 PROB30 TEMPO 1118/1120 5000 RA BKN015 BECMG 1118/1121 34010KT BECMG 1200/1203 23008KT

Decode

Destination Runways

ID Width Length Bearing (true) Bearing (mag) Surface Threshold Offset Overrun Length
12 148 ft / 45 m 4,909 ft / 1,496 m 115.13° 115.93° Asphalt 0 ft / 0 m 0 ft / 0 m
17 148 ft / 45 m 7,199 ft / 2,194 m 170.09° 170.89° Asphalt 0 ft / 0 m 0 ft / 0 m
30 148 ft / 45 m 4,909 ft / 1,496 m 295.14° 295.94° Asphalt 669 ft / 204 m 0 ft / 0 m
35 148 ft / 45 m 7,199 ft / 2,194 m 350.10° 350.90° Asphalt 0 ft / 0 m 0 ft / 0 m

Approach Navaids

Runway Type Ident Frequency Range Bearing (true) Bearing (mag) Slope Elevation
35 Localiser DR 110.75 MHz 27 nm / 50 km 350.08° 350.88° - 216 ft / 66 m (AMSL)
35 Glidescope DR 110.75 MHz 27 nm / 50 km 350.08° 350.88° 3.00° 216 ft / 66 m (AMSL)
35 DME DR 110.75 MHz 27 nm / 50 km - - - 216 ft / 66 m (AMSL)

Popular Alternatives